Flight Track Log - Related Links

Times and Time Zones

All times are in EDT time to prevent confusion due to time zone crossing. See the EJA831 flight status page for this flight to view local times or setup timezone preferences in your user account.

Time Position Orientation Groundspeed Altitude Reporting Facility
EDT Latitude Longitude Course Direction KTS MPH feet Rate Location/Type
Sat 08:20:34 AM 41.0333 -73.7167 304° West 196 226 2,700  Level New York TRACON
Sat 08:21:34 AM 41.0667 -73.7833 304° West 258 297 4,900 3,250 Climbing New York TRACON
Sat 08:22:34 AM 41.1333 -73.8333 331° Northwest 270 311 9,200 3,132 Climbing New York TRACON
Sat 08:24:13 AM 41.2281 -73.7289 40° Northeast 294 338 13,200 2,528 Climbing Boston Center
Sat 08:25:13 AM 41.2647 -73.6219 65° Northeast 331 381 15,900 1,850 Climbing Boston Center
Sat 08:26:13 AM 41.3139 -73.4903 64° Northeast 352 405 16,900 550 Climbing Boston Center
Sat 08:27:13 AM 41.3792 -73.4139 41° Northeast 347 399 17,000 950 Climbing Boston Center
Sat 08:28:13 AM 41.4653 -73.3350 34° Northeast 346 398 18,800 1,500 Climbing Boston Center
Sat 08:29:13 AM 41.5264 -73.2553 44° Northeast 356 410 20,000 1,100 Climbing Boston Center
Sat 08:30:13 AM 41.6083 -73.1481 44° Northeast 362 417 21,000 500 Climbing Boston Center
Sat 08:31:13 AM 41.7086 -73.1214 11° North 357 411 21,000  Level Boston Center
Sat 08:32:13 AM 41.8106 -73.1392 353° North 351 404 21,000  Level Boston Center
Sat 08:33:13 AM 41.9147 -73.1569 353° North 358 412 21,000  Level Boston Center
Sat 08:34:13 AM 42.0186 -73.1750 353° North 366 421 21,000  Level Boston Center
Sat 08:35:13 AM 42.1250 -73.1931 353° North 371 427 21,000  Level Boston Center
Sat 08:36:13 AM 42.2189 -73.1408 22° Northeast 361 415 21,000  Level Boston Center
Sat 08:37:13 AM 42.3031 -73.0381 42° Northeast 360 414 21,000  Level Boston Center
Sat 08:38:13 AM 42.3972 -72.9181 43° Northeast 401 461 21,000  Level Boston Center
Sat 08:39:13 AM 42.4728 -72.8228 43° Northeast 401 461 21,000  Level Boston Center
Sat 08:40:13 AM 42.5564 -72.7219 42° Northeast 408 470 21,000  Level Boston Center
Sat 08:41:13 AM 42.6525 -72.6094 41° Northeast 408 470 21,000  Level Boston Center
Sat 08:42:13 AM 42.7381 -72.5022 43° Northeast 414 476 21,000 -950 Level Boston Center
Sat 08:43:13 AM 42.8233 -72.3947 43° Northeast 414 476 19,100 -1,800 Descending Boston Center
Sat 08:44:13 AM 42.8983 -72.2900 46° Northeast 393 452 17,400 -1,850 Descending Boston Center
Sat 08:45:13 AM 42.9753 -72.1931 43° Northeast 379 436 15,400 -1,950 Descending Boston Center
Sat 08:46:13 AM 43.0500 -72.0992 43° Northeast 374 430 13,500 -1,818 Descending Boston Center
Sat 08:47:25 AM 43.1228 -72.0050 43° Northeast 362 417 11,400 -1,136 Descending Boston Center
Sat 08:48:25 AM 43.1994 -71.9075 43° Northeast 345 397 11,000 -1,050 Descending Boston Center
Sat 08:49:25 AM 43.2697 -71.8156 44° Northeast 326 375 9,300 -1,550 Descending Boston Center
Sat 08:50:25 AM 43.3236 -71.7436 44° Northeast 304 350 7,900 -1,500 Descending Boston Center
Sat 08:51:25 AM 43.3878 -71.6603 43° Northeast 292 336 6,300 -1,500 Descending Boston Center
Sat 08:52:25 AM 43.4372 -71.5967 43° Northeast 280 322 4,900 -900 Descending Boston Center
Sat 08:53:25 AM 43.4950 -71.5242 42° Northeast 280 322 4,500 3,050 Descending Boston Center
Sat 08:54:25 AM 43.5506 -71.4519 43° Northeast 280 322 11,000 3,250 Climbing Boston Center
Sat 08:55:25 AM 43.6083 -71.3792 42° Northeast 280 322 11,000  Level Boston Center
Sat 08:56:25 AM 43.6639 -71.3064 43° Northeast 280 322 11,000  Level Boston Center
Sat 08:57:25 AM 43.6764 -71.2919 40° Northeast 280 322 11,000  Level Boston Center
Sat 08:59:25 AM 43.6764 -71.2919 251° West 280 322 11,000  Level Boston Center
Sat 09:01:00 AM 43.5667 -71.4167 224° Southwest  Level FlightAware Approximate
Sat 09:08:00 AM 43.5730 -71.4178 224° Southwest  Level Estimated
Sat 09:09:00 AM 43.5667 -71.4167 224° Southwest  Level FlightAware Approximate
Sat 09:10:00 AM 43.5730 -71.4178 224° Southwest  Level Estimated

Login

Don't have an account? Register now (free) for customized features, flight alerts, and more!